sensor_id;sensor_type;location;lat;lon;timestamp;temperature;humidity
4602;DHT22;2313;48.552;9.370;2023-09-18T00:00:01;23.70;99.90
4602;DHT22;2313;48.552;9.370;2023-09-18T00:02:27;23.50;99.90
4602;DHT22;2313;48.552;9.370;2023-09-18T00:04:54;23.40;99.90
4602;DHT22;2313;48.552;9.370;2023-09-18T00:07:20;23.30;99.90
4602;DHT22;2313;48.552;9.370;2023-09-18T00:09:46;23.30;99.90
4602;DHT22;2313;48.552;9.370;2023-09-18T00:12:11;23.20;99.90
4602;DHT22;2313;48.552;9.370;2023-09-18T00:14:37;23.10;99.90
4602;DHT22;2313;48.552;9.370;2023-09-18T00:17:03;23.10;99.90
4602;DHT22;2313;48.552;9.370;2023-09-18T00:19:29;23.10;99.90
4602;DHT22;2313;48.552;9.370;2023-09-18T00:21:55;23.00;99.90
4602;DHT22;2313;48.552;9.370;2023-09-18T00:24:21;22.90;99.90
4602;DHT22;2313;48.552;9.370;2023-09-18T00:26:47;22.90;99.90
4602;DHT22;2313;48.552;9.370;2023-09-18T00:29:14;22.90;99.90
4602;DHT22;2313;48.552;9.370;2023-09-18T00:31:39;22.90;99.90
4602;DHT22;2313;48.552;9.370;2023-09-18T00:34:05;22.90;99.90
4602;DHT22;2313;48.552;9.370;2023-09-18T00:36:31;22.90;99.90
4602;DHT22;2313;48.552;9.370;2023-09-18T00:38:56;22.90;99.90
4602;DHT22;2313;48.552;9.370;2023-09-18T00:41:22;22.90;99.90
4602;DHT22;2313;48.552;9.370;2023-09-18T00:43:47;22.90;99.90
4602;DHT22;2313;48.552;9.370;2023-09-18T00:46:13;22.90;99.90
4602;DHT22;2313;48.552;9.370;2023-09-18T00:48:39;22.80;99.90
4602;DHT22;2313;48.552;9.370;2023-09-18T00:51:05;22.80;99.90
4602;DHT22;2313;48.552;9.370;2023-09-18T00:53:31;22.80;99.90
4602;DHT22;2313;48.552;9.370;2023-09-18T00:55:59;22.80;99.90
4602;DHT22;2313;48.552;9.370;2023-09-18T00:58:26;22.90;99.90
4602;DHT22;2313;48.552;9.370;2023-09-18T01:00:52;22.90;99.90
4602;DHT22;2313;48.552;9.370;2023-09-18T01:03:19;22.90;99.90
4602;DHT22;2313;48.552;9.370;2023-09-18T01:05:45;23.00;99.90
4602;DHT22;2313;48.552;9.370;2023-09-18T01:08:11;23.00;99.90
4602;DHT22;2313;48.552;9.370;2023-09-18T01:10:44;23.00;99.90
4602;DHT22;2313;48.552;9.370;2023-09-18T01:13:15;23.00;99.90
4602;DHT22;2313;48.552;9.370;2023-09-18T01:15:52;23.00;99.90
4602;DHT22;2313;48.552;9.370;2023-09-18T01:18:19;23.00;99.90
4602;DHT22;2313;48.552;9.370;2023-09-18T01:20:45;23.10;99.90
4602;DHT22;2313;48.552;9.370;2023-09-18T01:23:11;23.10;99.90
4602;DHT22;2313;48.552;9.370;2023-09-18T01:25:39;23.10;99.90
4602;DHT22;2313;48.552;9.370;2023-09-18T01:28:04;23.20;99.90
4602;DHT22;2313;48.552;9.370;2023-09-18T01:30:30;23.20;99.90
4602;DHT22;2313;48.552;9.370;2023-09-18T01:32:57;23.10;99.90
4602;DHT22;2313;48.552;9.370;2023-09-18T01:35:25;23.10;99.90
4602;DHT22;2313;48.552;9.370;2023-09-18T01:37:56;23.00;99.90
4602;DHT22;2313;48.552;9.370;2023-09-18T01:40:23;23.00;99.90
4602;DHT22;2313;48.552;9.370;2023-09-18T01:42:49;22.90;99.90
4602;DHT22;2313;48.552;9.370;2023-09-18T01:45:14;22.90;99.90
4602;DHT22;2313;48.552;9.370;2023-09-18T01:47:40;22.90;99.90
4602;DHT22;2313;48.552;9.370;2023-09-18T01:50:06;22.80;99.90
4602;DHT22;2313;48.552;9.370;2023-09-18T01:52:32;22.80;99.90
4602;DHT22;2313;48.552;9.370;2023-09-18T01:55:00;22.80;99.90
4602;DHT22;2313;48.552;9.370;2023-09-18T01:57:25;22.80;99.90
4602;DHT22;2313;48.552;9.370;2023-09-18T01:59:51;22.80;99.90
4602;DHT22;2313;48.552;9.370;2023-09-18T02:02:16;22.80;99.90
4602;DHT22;2313;48.552;9.370;2023-09-18T02:04:42;22.70;99.90
4602;DHT22;2313;48.552;9.370;2023-09-18T02:07:09;22.60;99.90
4602;DHT22;2313;48.552;9.370;2023-09-18T02:09:34;22.40;99.90
4602;DHT22;2313;48.552;9.370;2023-09-18T02:12:00;22.40;99.90
4602;DHT22;2313;48.552;9.370;2023-09-18T02:14:25;22.20;99.90
4602;DHT22;2313;48.552;9.370;2023-09-18T02:16:51;22.20;99.90
4602;DHT22;2313;48.552;9.370;2023-09-18T02:19:17;22.00;99.90
4602;DHT22;2313;48.552;9.370;2023-09-18T02:21:43;21.90;99.90
4602;DHT22;2313;48.552;9.370;2023-09-18T02:24:09;21.80;99.90
4602;DHT22;2313;48.552;9.370;2023-09-18T02:26:35;21.80;99.90
4602;DHT22;2313;48.552;9.370;2023-09-18T02:29:02;21.70;99.90
4602;DHT22;2313;48.552;9.370;2023-09-18T02:31:29;21.80;99.90
4602;DHT22;2313;48.552;9.370;2023-09-18T02:33:55;21.70;99.90
4602;DHT22;2313;48.552;9.370;2023-09-18T02:36:21;21.60;99.90
4602;DHT22;2313;48.552;9.370;2023-09-18T02:38:46;21.40;99.90
4602;DHT22;2313;48.552;9.370;2023-09-18T02:41:12;21.30;99.90
4602;DHT22;2313;48.552;9.370;2023-09-18T02:43:37;21.20;99.90
4602;DHT22;2313;48.552;9.370;2023-09-18T02:46:04;21.00;99.90
4602;DHT22;2313;48.552;9.370;2023-09-18T02:48:31;20.90;99.90
4602;DHT22;2313;48.552;9.370;2023-09-18T02:50:58;20.90;99.90
4602;DHT22;2313;48.552;9.370;2023-09-18T02:53:24;20.90;99.90
4602;DHT22;2313;48.552;9.370;2023-09-18T02:55:51;20.80;99.90
4602;DHT22;2313;48.552;9.370;2023-09-18T02:58:19;20.70;99.90
4602;DHT22;2313;48.552;9.370;2023-09-18T03:00:49;20.70;99.90
4602;DHT22;2313;48.552;9.370;2023-09-18T03:03:16;20.80;99.90
4602;DHT22;2313;48.552;9.370;2023-09-18T03:05:43;20.80;99.90
4602;DHT22;2313;48.552;9.370;2023-09-18T03:08:09;20.70;99.90
4602;DHT22;2313;48.552;9.370;2023-09-18T03:10:40;20.80;99.90
4602;DHT22;2313;48.552;9.370;2023-09-18T03:13:07;20.80;99.90
4602;DHT22;2313;48.552;9.370;2023-09-18T03:15:34;20.80;99.90
4602;DHT22;2313;48.552;9.370;2023-09-18T03:18:00;20.90;99.90
4602;DHT22;2313;48.552;9.370;2023-09-18T03:20:27;20.80;99.90
4602;DHT22;2313;48.552;9.370;2023-09-18T03:22:55;20.90;99.90
4602;DHT22;2313;48.552;9.370;2023-09-18T03:25:22;20.80;99.90
4602;DHT22;2313;48.552;9.370;2023-09-18T03:27:47;20.80;99.90
4602;DHT22;2313;48.552;9.370;2023-09-18T03:30:13;20.70;99.90
4602;DHT22;2313;48.552;9.370;2023-09-18T03:32:42;20.60;99.90
4602;DHT22;2313;48.552;9.370;2023-09-18T03:35:08;20.60;99.90
4602;DHT22;2313;48.552;9.370;2023-09-18T03:37:41;20.50;99.90
4602;DHT22;2313;48.552;9.370;2023-09-18T03:40:08;20.60;99.90
4602;DHT22;2313;48.552;9.370;2023-09-18T03:42:34;20.50;99.90
4602;DHT22;2313;48.552;9.370;2023-09-18T03:44:59;20.60;99.90
4602;DHT22;2313;48.552;9.370;2023-09-18T03:47:25;20.50;99.90
4602;DHT22;2313;48.552;9.370;2023-09-18T03:49:51;20.30;99.90
4602;DHT22;2313;48.552;9.370;2023-09-18T03:52:16;20.20;99.90
4602;DHT22;2313;48.552;9.370;2023-09-18T03:54:42;20.20;99.90
4602;DHT22;2313;48.552;9.370;2023-09-18T03:57:07;20.20;99.90
4602;DHT22;2313;48.552;9.370;2023-09-18T03:59:33;20.30;99.90
4602;DHT22;2313;48.552;9.370;2023-09-18T04:01:59;20.40;99.90
4602;DHT22;2313;48.552;9.370;2023-09-18T04:04:24;20.60;99.90
4602;DHT22;2313;48.552;9.370;2023-09-18T04:06:50;20.70;99.90
4602;DHT22;2313;48.552;9.370;2023-09-18T04:09:15;20.90;99.90
4602;DHT22;2313;48.552;9.370;2023-09-18T04:11:41;21.00;99.90
4602;DHT22;2313;48.552;9.370;2023-09-18T04:14:06;21.30;99.90
4602;DHT22;2313;48.552;9.370;2023-09-18T04:16:32;21.30;99.90
4602;DHT22;2313;48.552;9.370;2023-09-18T04:19:01;21.50;99.90
4602;DHT22;2313;48.552;9.370;2023-09-18T04:21:27;21.50;99.90
4602;DHT22;2313;48.552;9.370;2023-09-18T04:23:55;21.60;99.90
4602;DHT22;2313;48.552;9.370;2023-09-18T04:26:26;21.50;99.90
4602;DHT22;2313;48.552;9.370;2023-09-18T04:28:57;21.50;99.90
4602;DHT22;2313;48.552;9.370;2023-09-18T04:31:22;21.40;99.90
4602;DHT22;2313;48.552;9.370;2023-09-18T04:33:48;21.40;99.90
4602;DHT22;2313;48.552;9.370;2023-09-18T04:36:14;21.30;99.90
4602;DHT22;2313;48.552;9.370;2023-09-18T04:38:39;21.30;99.90
4602;DHT22;2313;48.552;9.370;2023-09-18T04:41:05;21.30;99.90
4602;DHT22;2313;48.552;9.370;2023-09-18T04:43:33;21.10;99.90
4602;DHT22;2313;48.552;9.370;2023-09-18T04:46:00;21.30;99.90
4602;DHT22;2313;48.552;9.370;2023-09-18T04:48:27;21.30;99.90
4602;DHT22;2313;48.552;9.370;2023-09-18T04:50:53;21.30;99.90
4602;DHT22;2313;48.552;9.370;2023-09-18T04:53:18;21.20;99.90
4602;DHT22;2313;48.552;9.370;2023-09-18T04:55:45;21.20;99.90
4602;DHT22;2313;48.552;9.370;2023-09-18T04:58:14;21.20;99.90
4602;DHT22;2313;48.552;9.370;2023-09-18T05:00:41;21.10;99.90
4602;DHT22;2313;48.552;9.370;2023-09-18T05:03:07;21.10;99.90
4602;DHT22;2313;48.552;9.370;2023-09-18T05:05:36;21.10;99.90
4602;DHT22;2313;48.552;9.370;2023-09-18T05:08:05;21.00;99.90
4602;DHT22;2313;48.552;9.370;2023-09-18T05:10:33;21.00;99.90
4602;DHT22;2313;48.552;9.370;2023-09-18T05:12:59;21.00;99.90
4602;DHT22;2313;48.552;9.370;2023-09-18T05:15:25;21.00;99.90
4602;DHT22;2313;48.552;9.370;2023-09-18T05:17:58;21.00;99.90
4602;DHT22;2313;48.552;9.370;2023-09-18T05:20:25;20.90;99.90
4602;DHT22;2313;48.552;9.370;2023-09-18T05:22:52;20.90;99.90
4602;DHT22;2313;48.552;9.370;2023-09-18T05:25:25;21.00;99.90
4602;DHT22;2313;48.552;9.370;2023-09-18T05:27:52;20.90;99.90
4602;DHT22;2313;48.552;9.370;2023-09-18T05:30:29;20.90;99.90
4602;DHT22;2313;48.552;9.370;2023-09-18T05:32:58;20.90;99.90
4602;DHT22;2313;48.552;9.370;2023-09-18T05:36:03;20.90;99.90
4602;DHT22;2313;48.552;9.370;2023-09-18T05:38:21;20.80;99.90
4602;DHT22;2313;48.552;9.370;2023-09-18T05:40:47;20.80;99.90
4602;DHT22;2313;48.552;9.370;2023-09-18T05:43:13;20.80;99.90
4602;DHT22;2313;48.552;9.370;2023-09-18T05:45:39;20.80;99.90
4602;DHT22;2313;48.552;9.370;2023-09-18T05:48:05;20.90;99.90
4602;DHT22;2313;48.552;9.370;2023-09-18T05:50:32;20.90;99.90
4602;DHT22;2313;48.552;9.370;2023-09-18T05:52:58;21.00;99.90
4602;DHT22;2313;48.552;9.370;2023-09-18T05:55:28;21.10;99.90
4602;DHT22;2313;48.552;9.370;2023-09-18T05:57:54;21.20;99.90
4602;DHT22;2313;48.552;9.370;2023-09-18T06:00:20;21.20;99.90
4602;DHT22;2313;48.552;9.370;2023-09-18T06:02:47;21.20;99.90
4602;DHT22;2313;48.552;9.370;2023-09-18T06:05:13;21.30;99.90
4602;DHT22;2313;48.552;9.370;2023-09-18T06:07:41;21.30;99.90
4602;DHT22;2313;48.552;9.370;2023-09-18T06:10:07;21.30;99.90
4602;DHT22;2313;48.552;9.370;2023-09-18T06:12:33;21.40;99.90
4602;DHT22;2313;48.552;9.370;2023-09-18T06:14:58;21.40;99.90
4602;DHT22;2313;48.552;9.370;2023-09-18T06:17:24;21.40;99.90
4602;DHT22;2313;48.552;9.370;2023-09-18T06:19:50;21.40;99.90
4602;DHT22;2313;48.552;9.370;2023-09-18T06:22:15;21.50;99.90
4602;DHT22;2313;48.552;9.370;2023-09-18T06:24:42;21.50;99.90
4602;DHT22;2313;48.552;9.370;2023-09-18T06:27:08;21.50;99.90
4602;DHT22;2313;48.552;9.370;2023-09-18T06:29:34;21.60;99.90
4602;DHT22;2313;48.552;9.370;2023-09-18T06:32:00;21.60;99.90
4602;DHT22;2313;48.552;9.370;2023-09-18T06:34:26;21.60;99.90
4602;DHT22;2313;48.552;9.370;2023-09-18T06:36:53;21.60;99.90
4602;DHT22;2313;48.552;9.370;2023-09-18T06:39:19;21.60;99.90
4602;DHT22;2313;48.552;9.370;2023-09-18T06:41:45;21.50;99.90
4602;DHT22;2313;48.552;9.370;2023-09-18T06:44:11;21.50;99.90
4602;DHT22;2313;48.552;9.370;2023-09-18T06:46:37;21.50;99.90
4602;DHT22;2313;48.552;9.370;2023-09-18T06:49:02;21.60;99.90
4602;DHT22;2313;48.552;9.370;2023-09-18T06:51:29;21.70;99.90
4602;DHT22;2313;48.552;9.370;2023-09-18T06:53:54;21.70;99.90
4602;DHT22;2313;48.552;9.370;2023-09-18T06:56:25;21.70;99.90
4602;DHT22;2313;48.552;9.370;2023-09-18T06:58:51;21.70;99.90
4602;DHT22;2313;48.552;9.370;2023-09-18T07:01:19;21.70;99.90
4602;DHT22;2313;48.552;9.370;2023-09-18T07:03:46;21.80;99.90
4602;DHT22;2313;48.552;9.370;2023-09-18T07:06:16;21.90;99.90
4602;DHT22;2313;48.552;9.370;2023-09-18T07:08:44;21.90;99.90
4602;DHT22;2313;48.552;9.370;2023-09-18T07:11:10;21.90;99.90
4602;DHT22;2313;48.552;9.370;2023-09-18T07:13:36;22.00;99.90
4602;DHT22;2313;48.552;9.370;2023-09-18T07:16:01;22.00;99.90
4602;DHT22;2313;48.552;9.370;2023-09-18T07:18:29;22.00;99.90
4602;DHT22;2313;48.552;9.370;2023-09-18T07:20:55;22.10;99.90
4602;DHT22;2313;48.552;9.370;2023-09-18T07:23:20;22.00;99.90
4602;DHT22;2313;48.552;9.370;2023-09-18T07:25:47;22.10;99.90
4602;DHT22;2313;48.552;9.370;2023-09-18T07:28:13;22.00;99.90
4602;DHT22;2313;48.552;9.370;2023-09-18T07:30:46;22.00;99.90
4602;DHT22;2313;48.552;9.370;2023-09-18T07:33:12;22.00;99.90
4602;DHT22;2313;48.552;9.370;2023-09-18T07:35:38;21.90;99.90
4602;DHT22;2313;48.552;9.370;2023-09-18T07:38:04;21.90;99.90
4602;DHT22;2313;48.552;9.370;2023-09-18T07:40:29;21.90;99.90
4602;DHT22;2313;48.552;9.370;2023-09-18T07:42:55;21.80;99.90
4602;DHT22;2313;48.552;9.370;2023-09-18T07:45:23;21.80;99.90
4602;DHT22;2313;48.552;9.370;2023-09-18T07:47:49;21.70;99.90
4602;DHT22;2313;48.552;9.370;2023-09-18T07:50:15;21.60;99.90
4602;DHT22;2313;48.552;9.370;2023-09-18T07:52:40;21.60;99.90
4602;DHT22;2313;48.552;9.370;2023-09-18T07:55:06;21.70;99.90
4602;DHT22;2313;48.552;9.370;2023-09-18T07:57:32;21.80;99.90
4602;DHT22;2313;48.552;9.370;2023-09-18T08:00:00;21.70;99.90
4602;DHT22;2313;48.552;9.370;2023-09-18T08:02:32;21.70;99.90
4602;DHT22;2313;48.552;9.370;2023-09-18T08:04:57;21.90;99.90
4602;DHT22;2313;48.552;9.370;2023-09-18T08:07:23;22.00;99.90
4602;DHT22;2313;48.552;9.370;2023-09-18T08:09:49;22.00;99.90
4602;DHT22;2313;48.552;9.370;2023-09-18T08:12:14;21.90;99.90
4602;DHT22;2313;48.552;9.370;2023-09-18T08:14:40;22.00;99.90
4602;DHT22;2313;48.552;9.370;2023-09-18T08:17:05;21.80;99.90
4602;DHT22;2313;48.552;9.370;2023-09-18T08:19:33;21.80;99.90
4602;DHT22;2313;48.552;9.370;2023-09-18T08:21:58;21.70;99.90
4602;DHT22;2313;48.552;9.370;2023-09-18T08:24:27;21.50;99.90
4602;DHT22;2313;48.552;9.370;2023-09-18T08:26:52;21.40;99.90
4602;DHT22;2313;48.552;9.370;2023-09-18T08:29:19;21.40;99.90
4602;DHT22;2313;48.552;9.370;2023-09-18T08:31:44;21.30;99.90
4602;DHT22;2313;48.552;9.370;2023-09-18T08:34:10;21.20;99.90
4602;DHT22;2313;48.552;9.370;2023-09-18T08:36:36;21.30;99.90
4602;DHT22;2313;48.552;9.370;2023-09-18T08:39:02;21.20;99.90
4602;DHT22;2313;48.552;9.370;2023-09-18T08:41:31;21.20;99.90
4602;DHT22;2313;48.552;9.370;2023-09-18T08:44:02;21.20;99.90
4602;DHT22;2313;48.552;9.370;2023-09-18T08:46:30;21.10;99.90
4602;DHT22;2313;48.552;9.370;2023-09-18T08:48:57;20.90;99.90
4602;DHT22;2313;48.552;9.370;2023-09-18T08:51:24;20.80;99.90
4602;DHT22;2313;48.552;9.370;2023-09-18T08:53:50;20.70;99.90
4602;DHT22;2313;48.552;9.370;2023-09-18T08:56:17;20.60;99.90
4602;DHT22;2313;48.552;9.370;2023-09-18T08:58:43;20.50;99.90
4602;DHT22;2313;48.552;9.370;2023-09-18T09:01:10;20.30;99.90
4602;DHT22;2313;48.552;9.370;2023-09-18T09:03:40;20.20;99.90
4602;DHT22;2313;48.552;9.370;2023-09-18T09:06:08;20.10;99.90
4602;DHT22;2313;48.552;9.370;2023-09-18T09:08:34;20.00;99.90
4602;DHT22;2313;48.552;9.370;2023-09-18T09:11:00;19.70;99.90
4602;DHT22;2313;48.552;9.370;2023-09-18T09:13:26;19.60;99.90
4602;DHT22;2313;48.552;9.370;2023-09-18T09:15:57;19.50;99.90
4602;DHT22;2313;48.552;9.370;2023-09-18T09:18:25;19.30;99.90
4602;DHT22;2313;48.552;9.370;2023-09-18T09:20:54;19.30;99.90
4602;DHT22;2313;48.552;9.370;2023-09-18T09:23:24;19.30;99.90
4602;DHT22;2313;48.552;9.370;2023-09-18T09:25:50;19.40;99.90
4602;DHT22;2313;48.552;9.370;2023-09-18T09:28:16;19.40;99.90
4602;DHT22;2313;48.552;9.370;2023-09-18T09:30:44;19.40;99.90
4602;DHT22;2313;48.552;9.370;2023-09-18T09:33:12;19.30;99.90
4602;DHT22;2313;48.552;9.370;2023-09-18T09:35:38;19.10;99.90
4602;DHT22;2313;48.552;9.370;2023-09-18T09:38:09;19.00;99.90
4602;DHT22;2313;48.552;9.370;2023-09-18T09:40:36;19.00;99.90
4602;DHT22;2313;48.552;9.370;2023-09-18T09:43:03;19.00;99.90
4602;DHT22;2313;48.552;9.370;2023-09-18T09:45:31;18.90;99.90
4602;DHT22;2313;48.552;9.370;2023-09-18T09:48:02;18.80;99.90
4602;DHT22;2313;48.552;9.370;2023-09-18T09:50:28;18.80;99.90
4602;DHT22;2313;48.552;9.370;2023-09-18T09:52:54;18.70;99.90
4602;DHT22;2313;48.552;9.370;2023-09-18T09:55:31;18.70;99.90
4602;DHT22;2313;48.552;9.370;2023-09-18T09:58:04;18.70;99.90
4602;DHT22;2313;48.552;9.370;2023-09-18T10:00:43;18.80;99.90
4602;DHT22;2313;48.552;9.370;2023-09-18T10:03:16;18.90;99.90
4602;DHT22;2313;48.552;9.370;2023-09-18T10:05:46;19.00;99.90
4602;DHT22;2313;48.552;9.370;2023-09-18T10:08:14;18.90;99.90
4602;DHT22;2313;48.552;9.370;2023-09-18T10:10:46;18.70;99.90
4602;DHT22;2313;48.552;9.370;2023-09-18T10:15:43;18.50;99.90
4602;DHT22;2313;48.552;9.370;2023-09-18T10:21:19;18.70;99.90
4602;DHT22;2313;48.552;9.370;2023-09-18T10:24:13;18.70;99.90
4602;DHT22;2313;48.552;9.370;2023-09-18T10:26:50;18.70;99.90
4602;DHT22;2313;48.552;9.370;2023-09-18T10:29:18;18.70;99.90
4602;DHT22;2313;48.552;9.370;2023-09-18T10:31:45;18.70;99.90
4602;DHT22;2313;48.552;9.370;2023-09-18T10:34:13;18.70;99.90
4602;DHT22;2313;48.552;9.370;2023-09-18T10:36:41;18.70;99.90
4602;DHT22;2313;48.552;9.370;2023-09-18T10:39:09;18.60;99.90
4602;DHT22;2313;48.552;9.370;2023-09-18T10:41:38;18.40;99.90
4602;DHT22;2313;48.552;9.370;2023-09-18T10:44:05;18.40;99.90
4602;DHT22;2313;48.552;9.370;2023-09-18T10:46:31;18.20;99.90
4602;DHT22;2313;48.552;9.370;2023-09-18T10:48:59;18.20;99.90
4602;DHT22;2313;48.552;9.370;2023-09-18T10:51:26;18.20;99.90
4602;DHT22;2313;48.552;9.370;2023-09-18T10:53:52;18.10;99.90
4602;DHT22;2313;48.552;9.370;2023-09-18T10:56:21;18.10;99.90
4602;DHT22;2313;48.552;9.370;2023-09-18T10:58:56;18.00;99.90
4602;DHT22;2313;48.552;9.370;2023-09-18T11:01:23;18.00;99.90
4602;DHT22;2313;48.552;9.370;2023-09-18T11:03:50;18.00;99.90
4602;DHT22;2313;48.552;9.370;2023-09-18T11:06:16;18.00;99.90
4602;DHT22;2313;48.552;9.370;2023-09-18T11:08:43;18.00;99.90
4602;DHT22;2313;48.552;9.370;2023-09-18T11:11:11;18.00;99.90
4602;DHT22;2313;48.552;9.370;2023-09-18T11:13:52;18.00;99.90
4602;DHT22;2313;48.552;9.370;2023-09-18T11:18:53;17.90;99.90
4602;DHT22;2313;48.552;9.370;2023-09-18T11:21:24;17.90;99.90
4602;DHT22;2313;48.552;9.370;2023-09-18T11:23:58;18.00;99.90
4602;DHT22;2313;48.552;9.370;2023-09-18T11:26:24;18.00;99.90
4602;DHT22;2313;48.552;9.370;2023-09-18T11:28:53;18.00;99.90
4602;DHT22;2313;48.552;9.370;2023-09-18T11:31:19;18.00;99.90
4602;DHT22;2313;48.552;9.370;2023-09-18T11:33:47;18.10;99.90
4602;DHT22;2313;48.552;9.370;2023-09-18T11:36:28;18.20;99.90
4602;DHT22;2313;48.552;9.370;2023-09-18T11:39:00;18.20;99.90
4602;DHT22;2313;48.552;9.370;2023-09-18T11:41:33;18.20;99.90
4602;DHT22;2313;48.552;9.370;2023-09-18T11:46:48;18.20;99.90
4602;DHT22;2313;48.552;9.370;2023-09-18T11:49:21;18.20;99.90
4602;DHT22;2313;48.552;9.370;2023-09-18T11:51:54;18.20;99.90
4602;DHT22;2313;48.552;9.370;2023-09-18T11:54:20;18.20;99.90
4602;DHT22;2313;48.552;9.370;2023-09-18T11:56:46;18.30;99.90
4602;DHT22;2313;48.552;9.370;2023-09-18T11:59:12;18.30;99.90
4602;DHT22;2313;48.552;9.370;2023-09-18T12:01:38;18.30;99.90
4602;DHT22;2313;48.552;9.370;2023-09-18T12:04:12;18.30;99.90
4602;DHT22;2313;48.552;9.370;2023-09-18T12:06:41;18.40;99.90
4602;DHT22;2313;48.552;9.370;2023-09-18T12:09:08;18.40;99.90
4602;DHT22;2313;48.552;9.370;2023-09-18T12:11:34;18.30;99.90
4602;DHT22;2313;48.552;9.370;2023-09-18T12:14:01;18.30;99.90
4602;DHT22;2313;48.552;9.370;2023-09-18T12:16:31;18.30;99.90
4602;DHT22;2313;48.552;9.370;2023-09-18T12:18:56;18.40;99.90
4602;DHT22;2313;48.552;9.370;2023-09-18T12:21:23;18.40;99.90
4602;DHT22;2313;48.552;9.370;2023-09-18T12:23:48;18.40;99.90
4602;DHT22;2313;48.552;9.370;2023-09-18T12:26:15;18.40;99.90
4602;DHT22;2313;48.552;9.370;2023-09-18T12:28:42;18.50;99.90
4602;DHT22;2313;48.552;9.370;2023-09-18T12:31:13;18.50;99.90
4602;DHT22;2313;48.552;9.370;2023-09-18T12:33:40;18.50;99.90
4602;DHT22;2313;48.552;9.370;2023-09-18T12:36:07;18.60;99.90
4602;DHT22;2313;48.552;9.370;2023-09-18T12:38:34;18.60;99.90
4602;DHT22;2313;48.552;9.370;2023-09-18T12:41:00;18.70;99.90
4602;DHT22;2313;48.552;9.370;2023-09-18T12:43:39;18.90;99.90
4602;DHT22;2313;48.552;9.370;2023-09-18T12:46:09;19.10;99.90
4602;DHT22;2313;48.552;9.370;2023-09-18T12:48:38;19.10;99.90
4602;DHT22;2313;48.552;9.370;2023-09-18T12:51:06;19.30;99.90
4602;DHT22;2313;48.552;9.370;2023-09-18T12:53:32;19.20;99.90
4602;DHT22;2313;48.552;9.370;2023-09-18T12:56:12;19.30;99.90
4602;DHT22;2313;48.552;9.370;2023-09-18T12:58:41;19.20;99.90
4602;DHT22;2313;48.552;9.370;2023-09-18T13:01:09;19.30;99.90
4602;DHT22;2313;48.552;9.370;2023-09-18T13:03:46;19.30;99.90
4602;DHT22;2313;48.552;9.370;2023-09-18T13:06:17;19.30;99.90
4602;DHT22;2313;48.552;9.370;2023-09-18T13:08:46;19.30;99.90
4602;DHT22;2313;48.552;9.370;2023-09-18T13:11:12;19.20;99.90
4602;DHT22;2313;48.552;9.370;2023-09-18T13:13:40;19.20;99.90
4602;DHT22;2313;48.552;9.370;2023-09-18T13:16:07;19.30;99.90
4602;DHT22;2313;48.552;9.370;2023-09-18T13:18:35;19.30;99.90
4602;DHT22;2313;48.552;9.370;2023-09-18T13:21:09;19.50;99.90
4602;DHT22;2313;48.552;9.370;2023-09-18T13:23:35;19.50;99.90
4602;DHT22;2313;48.552;9.370;2023-09-18T13:26:03;19.60;99.90
4602;DHT22;2313;48.552;9.370;2023-09-18T13:28:29;19.70;99.90
4602;DHT22;2313;48.552;9.370;2023-09-18T13:30:56;19.80;99.90
4602;DHT22;2313;48.552;9.370;2023-09-18T13:33:23;19.90;99.90
4602;DHT22;2313;48.552;9.370;2023-09-18T13:35:51;19.90;99.90
4602;DHT22;2313;48.552;9.370;2023-09-18T13:38:18;19.90;99.90
4602;DHT22;2313;48.552;9.370;2023-09-18T13:40:46;19.60;99.90
4602;DHT22;2313;48.552;9.370;2023-09-18T13:43:13;19.60;99.90
4602;DHT22;2313;48.552;9.370;2023-09-18T13:45:41;19.50;99.90
4602;DHT22;2313;48.552;9.370;2023-09-18T13:48:07;19.50;99.90
4602;DHT22;2313;48.552;9.370;2023-09-18T13:50:34;19.60;99.90
4602;DHT22;2313;48.552;9.370;2023-09-18T13:53:01;19.70;99.90
4602;DHT22;2313;48.552;9.370;2023-09-18T13:55:27;19.90;99.90
4602;DHT22;2313;48.552;9.370;2023-09-18T13:57:52;19.90;99.90
4602;DHT22;2313;48.552;9.370;2023-09-18T14:00:18;19.90;99.90
4602;DHT22;2313;48.552;9.370;2023-09-18T14:02:44;19.90;99.90
4602;DHT22;2313;48.552;9.370;2023-09-18T14:05:10;19.80;99.90
4602;DHT22;2313;48.552;9.370;2023-09-18T14:07:37;19.80;99.90
4602;DHT22;2313;48.552;9.370;2023-09-18T14:10:10;19.80;99.90
4602;DHT22;2313;48.552;9.370;2023-09-18T14:12:37;19.80;99.90
4602;DHT22;2313;48.552;9.370;2023-09-18T14:15:04;19.80;99.90
4602;DHT22;2313;48.552;9.370;2023-09-18T14:17:30;19.80;99.90
4602;DHT22;2313;48.552;9.370;2023-09-18T14:19:56;19.80;99.90
4602;DHT22;2313;48.552;9.370;2023-09-18T14:22:21;20.00;99.90
4602;DHT22;2313;48.552;9.370;2023-09-18T14:24:47;20.00;99.90
4602;DHT22;2313;48.552;9.370;2023-09-18T14:27:13;20.00;99.90
4602;DHT22;2313;48.552;9.370;2023-09-18T14:29:38;20.00;99.90
4602;DHT22;2313;48.552;9.370;2023-09-18T14:32:04;20.00;99.90
4602;DHT22;2313;48.552;9.370;2023-09-18T14:34:32;19.90;99.90
4602;DHT22;2313;48.552;9.370;2023-09-18T14:37:01;19.80;99.90
4602;DHT22;2313;48.552;9.370;2023-09-18T14:39:27;19.80;99.90
4602;DHT22;2313;48.552;9.370;2023-09-18T14:41:53;19.90;99.90
4602;DHT22;2313;48.552;9.370;2023-09-18T14:44:18;19.90;99.90
4602;DHT22;2313;48.552;9.370;2023-09-18T14:46:44;19.90;99.90
4602;DHT22;2313;48.552;9.370;2023-09-18T14:49:10;19.90;99.90
4602;DHT22;2313;48.552;9.370;2023-09-18T14:51:35;19.90;99.90
4602;DHT22;2313;48.552;9.370;2023-09-18T14:54:02;19.80;99.90
4602;DHT22;2313;48.552;9.370;2023-09-18T14:56:30;19.90;99.90
4602;DHT22;2313;48.552;9.370;2023-09-18T14:58:55;19.80;99.90
4602;DHT22;2313;48.552;9.370;2023-09-18T15:01:24;19.90;99.90
4602;DHT22;2313;48.552;9.370;2023-09-18T15:03:50;19.90;99.90
4602;DHT22;2313;48.552;9.370;2023-09-18T15:06:16;19.90;99.90
4602;DHT22;2313;48.552;9.370;2023-09-18T15:08:42;19.90;99.90
4602;DHT22;2313;48.552;9.370;2023-09-18T15:11:07;19.90;99.90
4602;DHT22;2313;48.552;9.370;2023-09-18T15:13:34;20.00;99.90
4602;DHT22;2313;48.552;9.370;2023-09-18T15:16:01;20.00;99.90
4602;DHT22;2313;48.552;9.370;2023-09-18T15:18:27;20.10;99.90
4602;DHT22;2313;48.552;9.370;2023-09-18T15:20:52;20.10;99.90
4602;DHT22;2313;48.552;9.370;2023-09-18T15:23:22;20.10;99.90
4602;DHT22;2313;48.552;9.370;2023-09-18T15:25:48;20.00;99.90
4602;DHT22;2313;48.552;9.370;2023-09-18T15:28:15;20.00;99.90
4602;DHT22;2313;48.552;9.370;2023-09-18T15:30:42;19.90;99.90
4602;DHT22;2313;48.552;9.370;2023-09-18T15:33:08;20.00;99.90
4602;DHT22;2313;48.552;9.370;2023-09-18T15:35:34;20.00;99.90
4602;DHT22;2313;48.552;9.370;2023-09-18T15:37:59;20.00;99.90
4602;DHT22;2313;48.552;9.370;2023-09-18T15:40:26;20.00;99.90
4602;DHT22;2313;48.552;9.370;2023-09-18T15:42:52;20.10;99.90
4602;DHT22;2313;48.552;9.370;2023-09-18T15:45:18;20.20;99.90
4602;DHT22;2313;48.552;9.370;2023-09-18T15:47:44;20.20;99.90
4602;DHT22;2313;48.552;9.370;2023-09-18T15:50:11;20.00;99.90
4602;DHT22;2313;48.552;9.370;2023-09-18T15:52:38;19.90;99.90
4602;DHT22;2313;48.552;9.370;2023-09-18T15:55:04;19.80;99.90
4602;DHT22;2313;48.552;9.370;2023-09-18T15:57:35;19.70;99.90
4602;DHT22;2313;48.552;9.370;2023-09-18T16:00:05;19.70;99.90
4602;DHT22;2313;48.552;9.370;2023-09-18T16:02:32;19.70;99.90
4602;DHT22;2313;48.552;9.370;2023-09-18T16:04:59;19.60;99.90
4602;DHT22;2313;48.552;9.370;2023-09-18T16:07:26;19.60;99.90
4602;DHT22;2313;48.552;9.370;2023-09-18T16:09:52;19.60;99.90
4602;DHT22;2313;48.552;9.370;2023-09-18T16:12:19;19.60;99.90